createdAt,value
2018-09-22T00:00:41.166Z,3.90
2018-09-22T00:03:09.516Z,4.00
2018-09-22T00:05:37.873Z,4.20
2018-09-22T00:08:06.212Z,4.28
2018-09-22T00:10:34.556Z,3.80
2018-09-22T00:13:02.912Z,3.08
2018-09-22T00:15:31.240Z,3.85
2018-09-22T00:17:59.637Z,3.57
2018-09-22T00:20:28.077Z,3.40
2018-09-22T00:22:56.408Z,3.20
2018-09-22T00:25:24.776Z,3.80
2018-09-22T00:27:53.074Z,3.33
2018-09-22T00:30:21.454Z,3.08
2018-09-22T00:32:49.812Z,3.10
2018-09-22T00:35:18.139Z,2.67
2018-09-22T00:37:46.538Z,2.80
2018-09-22T00:40:14.875Z,3.20
2018-09-22T00:42:43.289Z,3.00
2018-09-22T00:45:11.629Z,3.50
2018-09-22T00:47:39.939Z,3.62
2018-09-22T00:50:08.263Z,3.70
2018-09-22T00:52:36.576Z,4.00
2018-09-22T00:55:05.141Z,3.58
2018-09-22T00:57:33.468Z,4.50
2018-09-22T01:00:01.822Z,3.00
2018-09-22T01:02:31.478Z,2.70
2018-09-22T01:04:59.847Z,2.80
2018-09-22T01:07:28.187Z,3.00
2018-09-22T01:09:56.516Z,2.92
2018-09-22T01:12:24.985Z,2.70
2018-09-22T01:14:53.319Z,2.70
2018-09-22T01:17:21.654Z,2.40
2018-09-22T01:19:49.982Z,3.00
2018-09-22T01:22:18.424Z,2.42
2018-09-22T01:24:46.751Z,2.37
2018-09-22T01:27:15.108Z,2.60
2018-09-22T01:29:43.471Z,3.30
2018-09-22T01:32:11.796Z,3.07
2018-09-22T01:34:40.117Z,2.80
2018-09-22T01:37:08.467Z,2.55
2018-09-22T01:39:36.800Z,2.90
2018-09-22T01:42:05.167Z,2.70
2018-09-22T01:44:34.451Z,3.00
2018-09-22T01:47:02.807Z,2.50
2018-09-22T01:49:31.966Z,2.17
2018-09-22T01:52:00.401Z,2.00
2018-09-22T01:54:28.717Z,2.62
2018-09-22T01:56:57.055Z,2.70
2018-09-22T01:59:26.112Z,2.30
2018-09-22T02:01:54.475Z,2.05
2018-09-22T02:04:22.819Z,2.35
2018-09-22T02:06:51.143Z,2.08
2018-09-22T02:09:19.492Z,1.80
2018-09-22T02:11:47.833Z,2.35
2018-09-22T02:14:16.153Z,2.60
2018-09-22T02:16:44.457Z,2.37
2018-09-22T02:19:12.815Z,2.50
2018-09-22T02:21:41.288Z,2.40
2018-09-22T02:24:09.644Z,2.40
2018-09-22T02:26:37.995Z,2.37
2018-09-22T02:29:06.497Z,2.13
2018-09-22T02:31:34.920Z,2.62
2018-09-22T02:34:03.301Z,2.80
2018-09-22T02:36:31.640Z,2.90
2018-09-22T02:38:59.972Z,2.90
2018-09-22T02:41:28.335Z,2.83
2018-09-22T02:43:56.744Z,2.90
2018-09-22T02:46:25.062Z,3.02
2018-09-22T02:48:53.380Z,2.45
2018-09-22T02:51:21.736Z,3.30
2018-09-22T02:53:50.148Z,2.50
2018-09-22T02:56:18.462Z,2.80
2018-09-22T02:58:46.791Z,3.33
2018-09-22T03:01:15.116Z,2.90
2018-09-22T03:03:43.441Z,2.90
2018-09-22T03:06:11.776Z,2.95
2018-09-22T03:08:40.126Z,2.70
2018-09-22T03:11:08.499Z,3.30
2018-09-22T03:13:36.834Z,2.63
2018-09-22T03:16:05.166Z,2.80
2018-09-22T03:18:33.516Z,3.05
2018-09-22T03:21:03.261Z,2.90
2018-09-22T03:23:31.684Z,2.90
2018-09-22T03:26:00.000Z,2.90
2018-09-22T03:28:28.352Z,2.90
2018-09-22T03:30:56.837Z,2.98
2018-09-22T03:33:25.222Z,2.87
2018-09-22T03:35:53.528Z,2.50
2018-09-22T03:38:21.993Z,2.65
2018-09-22T03:40:50.269Z,3.45
2018-09-22T03:43:18.654Z,3.10
2018-09-22T03:45:46.981Z,2.60
2018-09-22T03:48:15.333Z,3.02
2018-09-22T03:50:43.660Z,2.60
2018-09-22T03:53:12.129Z,3.00
2018-09-22T03:55:40.530Z,2.80
2018-09-22T03:58:08.884Z,3.20
2018-09-22T04:00:37.226Z,3.17
2018-09-22T04:03:05.897Z,3.02
2018-09-22T04:05:34.227Z,3.00
2018-09-22T04:08:02.624Z,2.75
2018-09-22T04:10:30.976Z,2.65
2018-09-22T04:12:59.310Z,2.75
2018-09-22T04:15:27.696Z,3.20
2018-09-22T04:17:56.272Z,2.70
2018-09-22T04:20:24.612Z,3.08
2018-09-22T04:22:53.872Z,3.20
2018-09-22T04:25:22.204Z,2.10
2018-09-22T04:27:50.565Z,2.77
2018-09-22T04:30:19.255Z,2.83
2018-09-22T04:32:47.632Z,2.75
2018-09-22T04:35:15.953Z,3.00
2018-09-22T04:37:50.801Z,2.50
2018-09-22T04:40:19.121Z,3.33
2018-09-22T04:42:47.471Z,3.30
2018-09-22T04:45:15.851Z,3.00
2018-09-22T04:47:44.201Z,2.42
2018-09-22T04:50:12.530Z,3.00
2018-09-22T04:52:40.884Z,2.83
2018-09-22T04:55:09.241Z,2.17
2018-09-22T04:57:37.597Z,2.60
2018-09-22T05:00:06.059Z,2.60
2018-09-22T05:02:34.392Z,2.58
2018-09-22T05:06:27.175Z,2.70
2018-09-22T05:08:55.820Z,2.80
2018-09-22T05:11:24.200Z,3.40
2018-09-22T05:13:52.536Z,3.03
2018-09-22T05:16:20.847Z,3.10
2018-09-22T05:18:49.256Z,3.45
2018-09-22T05:21:17.636Z,2.83
2018-09-22T05:23:45.967Z,2.85
2018-09-22T05:26:14.295Z,3.60
2018-09-22T05:28:42.723Z,2.90
2018-09-22T05:31:11.118Z,3.10
2018-09-22T05:33:39.467Z,2.70
2018-09-22T05:36:07.840Z,2.77
2018-09-22T05:38:36.156Z,3.20
2018-09-22T05:41:04.514Z,2.90
2018-09-22T05:43:32.829Z,4.30
2018-09-22T05:46:01.156Z,2.90
2018-09-22T05:48:29.491Z,2.97
2018-09-22T05:50:57.809Z,3.10
2018-09-22T05:53:26.161Z,3.00
2018-09-22T05:55:54.564Z,3.00
2018-09-22T05:58:23.002Z,2.60
2018-09-22T06:00:51.386Z,3.20
2018-09-22T06:03:19.816Z,2.80
2018-09-22T06:05:48.116Z,2.90
2018-09-22T06:08:16.482Z,2.60
2018-09-22T06:10:44.843Z,3.33
2018-09-22T06:13:13.254Z,2.90
2018-09-22T06:15:41.668Z,2.80
2018-09-22T06:18:10.046Z,3.00
2018-09-22T06:20:44.745Z,2.40
2018-09-22T06:23:13.257Z,2.85
2018-09-22T06:25:41.577Z,2.90
2018-09-22T06:28:09.932Z,2.87
2018-09-22T06:30:38.297Z,3.20
2018-09-22T06:33:06.704Z,3.20
2018-09-22T06:35:35.156Z,2.87
2018-09-22T06:38:03.557Z,3.10
2018-09-22T06:40:31.925Z,2.60
2018-09-22T06:43:00.227Z,2.70
2018-09-22T06:45:28.641Z,2.80
2018-09-22T06:47:56.978Z,2.90
2018-09-22T06:50:25.369Z,2.60
2018-09-22T06:52:53.728Z,2.65
2018-09-22T06:55:22.139Z,2.80
2018-09-22T06:57:50.504Z,3.03
2018-09-22T07:00:18.853Z,3.00
2018-09-22T07:02:47.241Z,2.92
2018-09-22T07:05:15.637Z,2.20
2018-09-22T07:07:44.108Z,2.70
2018-09-22T07:10:12.589Z,2.90
2018-09-22T07:12:40.962Z,2.53
2018-09-22T07:15:09.314Z,2.77
2018-09-22T07:17:37.687Z,2.50
2018-09-22T07:20:06.114Z,2.83
2018-09-22T07:22:39.792Z,2.95
2018-09-22T07:25:09.070Z,3.40
2018-09-22T07:27:37.432Z,3.27
2018-09-22T07:30:05.778Z,3.53
2018-09-22T07:32:34.155Z,2.60
2018-09-22T07:35:02.521Z,3.00
2018-09-22T07:37:30.893Z,2.90
2018-09-22T07:39:59.270Z,2.90
2018-09-22T07:42:27.634Z,3.22
2018-09-22T07:44:56.032Z,3.00
2018-09-22T07:47:24.391Z,3.10
2018-09-22T07:49:52.769Z,2.80
2018-09-22T07:52:21.127Z,4.78
2018-09-22T07:54:49.543Z,5.45
2018-09-22T07:57:19.119Z,4.30
2018-09-22T07:59:47.474Z,2.98
2018-09-22T08:02:15.880Z,2.70
2018-09-22T08:04:44.234Z,2.87
2018-09-22T08:07:12.615Z,3.75
2018-09-22T08:09:41.005Z,3.58
2018-09-22T08:12:09.373Z,3.90
2018-09-22T08:14:37.843Z,3.58
2018-09-22T08:17:06.241Z,2.77
2018-09-22T08:19:34.624Z,2.52
2018-09-22T08:22:03.037Z,2.70
2018-09-22T08:24:31.480Z,2.60
2018-09-22T08:26:59.911Z,3.00
2018-09-22T08:29:28.269Z,2.60
2018-09-22T08:31:56.669Z,2.80
2018-09-22T08:34:25.341Z,2.50
2018-09-22T08:36:53.904Z,2.70
2018-09-22T08:39:22.079Z,3.30
2018-09-22T08:41:50.497Z,2.92
2018-09-22T08:44:18.850Z,2.77
2018-09-22T08:46:47.268Z,2.67
2018-09-22T08:49:15.633Z,2.72
2018-09-22T08:51:44.033Z,3.00
2018-09-22T08:54:12.397Z,2.80
2018-09-22T08:56:40.752Z,2.70
2018-09-22T08:59:09.693Z,2.60
2018-09-22T09:01:38.082Z,3.17
2018-09-22T09:04:07.176Z,2.73
2018-09-22T09:06:35.570Z,2.90
2018-09-22T09:09:05.427Z,3.30
2018-09-22T09:11:33.850Z,3.00
2018-09-22T09:14:02.242Z,2.90
2018-09-22T09:16:30.559Z,2.72
2018-09-22T09:18:58.991Z,2.70
2018-09-22T09:21:27.377Z,2.40
2018-09-22T09:23:55.785Z,3.00
2018-09-22T09:26:24.240Z,2.67
2018-09-22T09:28:52.632Z,2.70
2018-09-22T09:31:21.284Z,2.83
2018-09-22T09:33:50.389Z,2.33
2018-09-22T09:36:19.035Z,2.30
2018-09-22T09:38:47.379Z,2.10
2018-09-22T09:41:16.427Z,2.17
2018-09-22T09:43:45.695Z,2.10
2018-09-22T09:46:14.156Z,2.60
2018-09-22T09:48:42.529Z,2.40
2018-09-22T09:51:10.997Z,2.40
2018-09-22T09:53:39.340Z,2.50
2018-09-22T09:56:07.725Z,1.70
2018-09-22T09:58:36.091Z,1.97
2018-09-22T10:01:04.502Z,2.00
2018-09-22T10:03:32.975Z,2.08
2018-09-22T10:06:01.349Z,2.10
2018-09-22T10:08:29.739Z,1.90
2018-09-22T10:10:58.717Z,1.80
2018-09-22T10:13:27.228Z,2.10
2018-09-22T10:15:55.629Z,1.75
2018-09-22T10:18:24.035Z,1.40
2018-09-22T10:20:52.419Z,1.70
2018-09-22T10:23:20.784Z,1.50
2018-09-22T10:25:49.159Z,1.90
2018-09-22T10:28:17.495Z,1.85
2018-09-22T10:30:45.862Z,1.95
2018-09-22T10:33:28.127Z,1.80
2018-09-22T10:35:56.538Z,1.60
2018-09-22T10:38:24.880Z,2.00
2018-09-22T10:40:53.347Z,3.20
2018-09-22T10:43:21.698Z,1.60
2018-09-22T10:45:50.102Z,1.70
2018-09-22T10:48:25.171Z,1.80
2018-09-22T10:50:53.593Z,1.70
2018-09-22T10:53:22.835Z,1.70
2018-09-22T10:55:51.212Z,1.63
2018-09-22T10:58:19.532Z,1.90
2018-09-22T11:00:47.880Z,1.70
2018-09-22T11:03:16.221Z,1.50
2018-09-22T11:05:44.595Z,1.50
2018-09-22T11:08:12.996Z,1.70
2018-09-22T11:10:41.374Z,1.60
2018-09-22T11:13:09.841Z,1.42
2018-09-22T11:15:38.189Z,1.95
2018-09-22T11:18:06.907Z,1.82
2018-09-22T11:20:35.867Z,1.62
2018-09-22T11:23:04.245Z,1.50
2018-09-22T11:25:32.618Z,1.47
2018-09-22T11:28:00.991Z,1.70
2018-09-22T11:30:29.435Z,2.20
2018-09-22T11:32:57.828Z,1.80
2018-09-22T11:35:26.209Z,1.72
2018-09-22T11:37:54.625Z,2.20
2018-09-22T11:40:22.989Z,1.60
2018-09-22T11:42:51.518Z,1.80
2018-09-22T11:45:19.880Z,1.62
2018-09-22T11:47:48.435Z,2.00
2018-09-22T11:50:16.772Z,1.60
2018-09-22T11:52:45.325Z,1.80
2018-09-22T11:55:14.292Z,1.50
2018-09-22T11:57:42.640Z,1.50
2018-09-22T12:00:10.998Z,1.40
2018-09-22T12:02:40.481Z,1.63
2018-09-22T12:05:08.887Z,1.72
2018-09-22T12:07:37.240Z,1.40
2018-09-22T12:10:05.727Z,1.55
2018-09-22T12:12:34.113Z,1.20
2018-09-22T12:15:02.568Z,1.20
2018-09-22T12:17:30.948Z,1.60
2018-09-22T12:19:59.626Z,1.60
2018-09-22T12:22:28.023Z,1.50
2018-09-22T12:24:56.378Z,1.80
2018-09-22T12:27:24.735Z,1.50
2018-09-22T12:29:53.090Z,2.07
2018-09-22T12:32:21.445Z,1.80
2018-09-22T12:34:49.854Z,1.50
2018-09-22T12:37:18.171Z,1.72
2018-09-22T12:39:46.581Z,1.70
2018-09-22T12:42:14.997Z,1.90
2018-09-22T12:44:43.375Z,1.60
2018-09-22T12:47:11.821Z,1.62
2018-09-22T12:49:40.171Z,1.80
2018-09-22T12:52:08.593Z,1.72
2018-09-22T12:54:36.999Z,2.05
2018-09-22T12:57:05.356Z,1.60
2018-09-22T12:59:33.769Z,1.70
2018-09-22T13:02:02.183Z,1.85
2018-09-22T13:04:30.593Z,1.80
2018-09-22T13:06:58.931Z,1.50
2018-09-22T13:09:27.673Z,1.70
2018-09-22T13:11:56.081Z,1.67
2018-09-22T13:14:24.444Z,2.00
2018-09-22T13:16:52.906Z,1.60
2018-09-22T13:19:21.426Z,2.15
2018-09-22T13:21:49.798Z,2.17
2018-09-22T13:24:18.197Z,2.00
2018-09-22T13:26:46.705Z,1.50
2018-09-22T13:29:15.057Z,1.80
2018-09-22T13:31:43.429Z,1.40
2018-09-22T13:34:11.873Z,1.85
2018-09-22T13:36:40.290Z,2.20
2018-09-22T13:39:10.207Z,1.77
2018-09-22T13:41:38.557Z,1.75
2018-09-22T13:44:06.945Z,1.60
2018-09-22T13:46:35.290Z,1.90
2018-09-22T13:49:03.733Z,2.00
2018-09-22T13:51:32.078Z,2.10
2018-09-22T13:54:00.415Z,1.90
2018-09-22T13:56:28.765Z,1.75
2018-09-22T13:58:57.440Z,1.50
2018-09-22T14:01:25.840Z,2.08
2018-09-22T14:03:54.763Z,2.00
2018-09-22T14:06:23.152Z,2.05
2018-09-22T14:08:51.568Z,2.20
2018-09-22T14:11:19.939Z,1.90
2018-09-22T14:13:48.286Z,2.10
2018-09-22T14:16:18.122Z,2.25
2018-09-22T14:18:46.806Z,2.30
2018-09-22T14:21:15.218Z,2.08
2018-09-22T14:23:43.517Z,2.08
2018-09-22T14:26:11.900Z,1.80
2018-09-22T14:28:40.313Z,2.30
2018-09-22T14:31:08.703Z,1.80
2018-09-22T14:33:37.320Z,2.00
2018-09-22T14:36:05.668Z,1.80
2018-09-22T14:38:34.050Z,2.12
2018-09-22T14:41:02.425Z,2.08
2018-09-22T14:43:30.804Z,2.80
2018-09-22T14:46:00.185Z,1.90
2018-09-22T14:48:28.586Z,1.90
2018-09-22T14:50:56.959Z,2.00
2018-09-22T14:53:25.326Z,2.00
2018-09-22T14:55:53.756Z,2.63
2018-09-22T14:58:22.125Z,1.83
2018-09-22T15:00:50.506Z,1.40
2018-09-22T15:03:18.905Z,2.00
2018-09-22T15:05:47.259Z,1.65
2018-09-22T15:08:15.660Z,1.70
2018-09-22T15:10:44.183Z,1.90
2018-09-22T15:13:12.574Z,1.70
2018-09-22T15:15:40.958Z,2.03
2018-09-22T15:18:09.333Z,2.43
2018-09-22T15:20:37.718Z,2.60
2018-09-22T15:23:06.180Z,1.90
2018-09-22T15:25:34.525Z,2.20
2018-09-22T15:28:02.896Z,2.20
2018-09-22T15:30:31.354Z,2.20
2018-09-22T15:32:59.690Z,1.60
2018-09-22T15:35:28.069Z,2.00
2018-09-22T15:37:56.428Z,1.90
2018-09-22T15:40:24.814Z,2.40
2018-09-22T15:42:53.426Z,2.00
2018-09-22T15:45:21.855Z,1.65
2018-09-22T15:47:50.210Z,2.30
2018-09-22T15:50:18.674Z,1.90
2018-09-22T15:52:47.023Z,1.62
2018-09-22T15:55:15.426Z,1.75
2018-09-22T15:57:43.789Z,1.92
2018-09-22T16:00:12.175Z,2.10
2018-09-22T16:02:40.871Z,1.87
2018-09-22T16:05:09.212Z,2.10
2018-09-22T16:07:37.588Z,2.00
2018-09-22T16:10:06.232Z,1.82
2018-09-22T16:12:36.103Z,1.60
2018-09-22T16:15:04.596Z,1.50
2018-09-22T16:17:33.006Z,1.40
2018-09-22T16:20:01.529Z,1.80
2018-09-22T16:22:29.879Z,1.70
2018-09-22T16:24:58.211Z,1.70
2018-09-22T16:27:27.330Z,1.30
2018-09-22T16:29:55.647Z,1.50
2018-09-22T16:32:24.102Z,1.50
2018-09-22T16:34:52.427Z,1.70
2018-09-22T16:37:20.825Z,1.72
2018-09-22T16:39:49.221Z,1.80
2018-09-22T16:42:17.610Z,1.80
2018-09-22T16:44:45.985Z,1.20
2018-09-22T16:47:14.450Z,1.90
2018-09-22T16:49:42.811Z,1.50
2018-09-22T16:52:11.145Z,1.47
2018-09-22T16:54:39.492Z,2.00
2018-09-22T16:57:07.831Z,1.60
2018-09-22T16:59:36.240Z,1.70
2018-09-22T17:02:04.607Z,1.77
2018-09-22T17:04:33.000Z,2.10
2018-09-22T17:07:01.333Z,2.00
2018-09-22T17:09:29.801Z,1.70
2018-09-22T17:11:58.136Z,1.90
2018-09-22T17:14:26.493Z,2.00
2018-09-22T17:16:54.869Z,1.85
2018-09-22T17:19:23.243Z,2.77
2018-09-22T17:21:51.590Z,2.83
2018-09-22T17:24:20.005Z,2.40
2018-09-22T17:26:48.405Z,2.70
2018-09-22T17:29:16.772Z,3.10
2018-09-22T17:31:45.128Z,4.08
2018-09-22T17:34:13.484Z,3.80
2018-09-22T17:36:41.841Z,4.12
2018-09-22T17:39:10.964Z,3.30
2018-09-22T17:41:39.313Z,3.60
2018-09-22T17:44:07.654Z,4.40
2018-09-22T17:46:36.061Z,5.10
2018-09-22T17:49:04.437Z,4.78
2018-09-22T17:51:32.811Z,5.87
2018-09-22T17:54:01.120Z,5.67
2018-09-22T17:56:29.548Z,4.75
2018-09-22T17:58:57.919Z,4.50
2018-09-22T18:01:26.425Z,3.70
2018-09-22T18:03:54.787Z,4.40
2018-09-22T18:06:23.190Z,4.23
2018-09-22T18:08:51.560Z,3.90
2018-09-22T18:11:19.920Z,3.77
2018-09-22T18:13:48.267Z,4.00
2018-09-22T18:16:16.615Z,4.60
2018-09-22T18:18:45.202Z,3.50
2018-09-22T18:21:13.543Z,3.95
2018-09-22T18:23:41.885Z,4.10
2018-09-22T18:26:10.257Z,3.30
2018-09-22T18:28:38.778Z,3.80
2018-09-22T18:31:07.224Z,4.00
2018-09-22T18:33:35.627Z,4.50
2018-09-22T18:36:03.981Z,4.30
2018-09-22T18:38:32.368Z,4.12
2018-09-22T18:41:00.722Z,4.40
2018-09-22T18:43:29.153Z,4.00
2018-09-22T18:45:57.493Z,3.60
2018-09-22T18:48:25.883Z,3.70
2018-09-22T18:50:54.227Z,3.20
2018-09-22T18:53:22.612Z,3.00
2018-09-22T18:55:51.155Z,3.00
2018-09-22T18:58:19.533Z,3.37
2018-09-22T19:00:47.869Z,3.40
2018-09-22T19:03:16.241Z,3.40
2018-09-22T19:05:44.628Z,3.00
2018-09-22T19:08:12.959Z,3.70
2018-09-22T19:10:41.347Z,3.90
2018-09-22T19:13:11.576Z,3.00
2018-09-22T19:15:50.006Z,3.40
2018-09-22T19:18:21.757Z,3.20
2018-09-22T19:20:55.389Z,3.58
2018-09-22T19:23:28.370Z,3.85
2018-09-22T19:26:00.468Z,3.80
2018-09-22T19:28:34.029Z,3.90
2018-09-22T19:31:06.106Z,4.00
2018-09-22T19:33:45.501Z,3.60
2018-09-22T19:36:31.768Z,3.33
2018-09-22T19:39:11.963Z,4.03
2018-09-22T19:41:50.235Z,4.10
2018-09-22T19:44:21.651Z,4.47
2018-09-22T19:46:53.920Z,4.20
2018-09-22T19:49:25.994Z,4.70
2018-09-22T19:51:58.976Z,5.03
2018-09-22T19:54:27.369Z,4.90
2018-09-22T19:56:55.754Z,5.30
2018-09-22T19:59:24.149Z,5.70
2018-09-22T20:01:52.670Z,6.10
2018-09-22T20:04:21.047Z,6.40
2018-09-22T20:06:49.400Z,6.60
2018-09-22T20:09:18.148Z,6.42
2018-09-22T20:11:46.524Z,5.90
2018-09-22T20:14:14.929Z,6.37
2018-09-22T20:16:43.321Z,7.53
2018-09-22T20:19:11.698Z,7.50
2018-09-22T20:21:40.101Z,7.30
2018-09-22T20:24:08.454Z,7.40
2018-09-22T20:26:36.838Z,7.72
2018-09-22T20:29:05.196Z,8.38
2018-09-22T20:31:33.601Z,8.53
2018-09-22T20:34:02.320Z,8.50
2018-09-22T20:36:33.617Z,7.90
2018-09-22T20:39:02.013Z,8.50
2018-09-22T20:41:30.379Z,7.42
2018-09-22T20:43:58.795Z,7.80
2018-09-22T20:46:27.167Z,8.77
2018-09-22T20:48:55.477Z,8.57
2018-09-22T20:51:23.828Z,8.90
2018-09-22T20:53:52.310Z,8.38
2018-09-22T20:56:20.575Z,8.63
2018-09-22T20:58:48.968Z,8.85
2018-09-22T21:01:17.516Z,8.23
2018-09-22T21:03:45.881Z,8.73
2018-09-22T21:06:14.235Z,8.20
2018-09-22T21:08:42.607Z,8.13
2018-09-22T21:11:10.987Z,7.85
2018-09-22T21:13:39.408Z,9.20
2018-09-22T21:16:07.788Z,9.40
2018-09-22T21:18:36.251Z,8.65
2018-09-22T21:21:04.754Z,7.95
2018-09-22T21:23:33.142Z,8.68
2018-09-22T21:26:01.516Z,9.08
2018-09-22T21:28:29.875Z,9.20
2018-09-22T21:30:58.392Z,8.80
2018-09-22T21:33:26.735Z,9.30
2018-09-22T21:35:55.070Z,9.83
2018-09-22T21:38:23.438Z,10.23
2018-09-22T21:40:51.836Z,10.30
2018-09-22T21:43:20.396Z,9.73
2018-09-22T21:45:49.122Z,10.05
2018-09-22T21:48:17.533Z,10.50
2018-09-22T21:50:45.874Z,10.00
2018-09-22T21:53:14.236Z,10.03
2018-09-22T21:55:42.612Z,9.88
2018-09-22T21:58:11.010Z,9.78
2018-09-22T22:00:39.399Z,10.28
2018-09-22T22:03:07.781Z,9.90
2018-09-22T22:05:36.568Z,10.10
2018-09-22T22:08:04.899Z,9.73
2018-09-22T22:10:33.277Z,9.83
2018-09-22T22:13:01.700Z,10.53
2018-09-22T22:15:30.073Z,10.10
2018-09-22T22:17:58.419Z,9.93
2018-09-22T22:20:26.802Z,10.63
2018-09-22T22:22:55.166Z,10.10
2018-09-22T22:25:23.548Z,9.65
2018-09-22T22:27:51.902Z,9.40
2018-09-22T22:30:20.281Z,9.03
2018-09-22T22:32:48.635Z,8.90
2018-09-22T22:35:17.046Z,8.13
2018-09-22T22:37:45.408Z,8.50
2018-09-22T22:40:13.754Z,7.70
2018-09-22T22:42:42.109Z,7.30
2018-09-22T22:45:10.619Z,7.37
2018-09-22T22:47:39.001Z,6.58
2018-09-22T22:50:07.457Z,5.87
2018-09-22T22:52:35.824Z,5.80
2018-09-22T22:55:04.149Z,5.30
2018-09-22T22:57:32.504Z,5.50
2018-09-22T23:00:00.923Z,5.00
2018-09-22T23:02:29.274Z,4.85
2018-09-22T23:04:57.710Z,4.85
2018-09-22T23:07:26.056Z,4.83
2018-09-22T23:09:54.523Z,4.70
2018-09-22T23:12:22.864Z,4.87
2018-09-22T23:14:51.259Z,4.92
2018-09-22T23:17:19.629Z,4.60
2018-09-22T23:19:48.265Z,5.67
2018-09-22T23:22:16.795Z,5.00
2018-09-22T23:24:45.151Z,5.10
2018-09-22T23:27:13.501Z,5.07
2018-09-22T23:29:41.878Z,5.30
2018-09-22T23:32:10.270Z,4.95
2018-09-22T23:34:38.687Z,5.65
2018-09-22T23:37:07.063Z,5.10
2018-09-22T23:39:35.415Z,5.63
2018-09-22T23:42:03.787Z,6.10
2018-09-22T23:44:32.208Z,5.70
2018-09-22T23:47:00.577Z,5.70
2018-09-22T23:49:28.957Z,5.58
2018-09-22T23:51:57.351Z,5.40
2018-09-22T23:54:25.745Z,5.90
2018-09-22T23:56:54.101Z,6.20
2018-09-22T23:59:22.671Z,6.60
